Rechercher aéroport 
image banner adimage banner adimage banner ad
image banner ad

70CA - The Wilshire Thayer

Situé à Los Angeles, United States

ICAO - 70CA, IATA -

Données fournies par Airmate  

Information générale

Coordonnées: N34°3'45" W118°25'57"
Élévation : 470 feet MSL.
Variation magnétique : 14° East
Voir autres Aéroports à California

Données opérationnelles

Special qualification required
Heure actuelle UTC:
Heure actuelle locale:
Météo à : KSMO - Santa Monica Muni ( 5 km )
METAR: KSMO 251451Z 22003KT 9SM OVC012 19/16 A3000 RMK AO2 SLP156 T01940161 53014
TAF: KSMO 251416Z 2514/2612 VRB05KT P6SM SCT013 BKN220 TEMPO 2514/2516 BKN013 FM251800 23008KT P6SM FEW015 BKN120 FM260400 VRB03KT P6SM BKN012 OVC120 FM260900 VRB03KT P6SM VCSH OVC100
Voir NOTAMs / SUP AIP / TFR affectant cet aéroport [VIEW]
Fréquences de communication: [VIEW]

Pistes:

Coordonnées de l'aéroport

Adresse: Los Angeles United States

Vue satellite de 70CA